Time;durP1;ratioP1;P1;durP2;ratioP2;P2;SDS_P1;SDS_P2;PMS_P1;PMS_P2;Temp;Humidity;BMP_temperature;BMP_pressure;BME280_temperature;BME280_humidity;BME280_pressure;Samples;Min_cycle;Max_cycle;Signal;HPM_P1;HPM_P2
2021/01/05 00:00:40;;;;;;;574.00;364.82;;;;;;;5.27;74.02;93766.19;1758013;80;21128;-49
2021/01/05 00:03:08;;;;;;;623.97;402.23;;;;;;;5.31;73.79;93769.56;1759332;80;21113;-49
2021/01/05 00:05:36;;;;;;;598.30;387.17;;;;;;;5.24;73.87;93767.06;1755902;80;21209;-50
2021/01/05 00:08:04;;;;;;;573.10;364.68;;;;;;;5.28;73.93;93775.28;1754803;80;21096;-48
2021/01/05 00:10:33;;;;;;;594.92;378.60;;;;;;;5.33;73.75;93771.25;1766008;80;21097;-50
2021/01/05 00:13:01;;;;;;;587.67;379.87;;;;;;;5.27;73.77;93762.09;1764396;80;21472;-49
2021/01/05 00:15:29;;;;;;;597.55;384.20;;;;;;;5.29;73.93;93765.92;1749902;80;21051;-49
2021/01/05 00:17:57;;;;;;;601.82;387.75;;;;;;;5.31;73.83;93777.16;1757194;80;21215;-50
2021/01/05 00:20:32;;;;;;;595.12;382.95;;;;;;;5.33;74.01;93766.57;1752943;80;21154;-49
2021/01/05 00:23:01;;;;;;;605.13;390.38;;;;;;;5.39;73.59;93766.17;1764918;80;21080;-49
2021/01/05 00:25:30;;;;;;;609.13;387.68;;;;;;;5.39;73.64;93762.70;1756906;80;21065;-49
2021/01/05 00:27:58;;;;;;;600.95;384.15;;;;;;;5.43;73.61;93755.91;1747550;80;21059;-50
2021/01/05 00:30:27;;;;;;;595.80;382.35;;;;;;;5.49;73.46;93764.31;1775639;80;21579;-49
2021/01/05 00:32:55;;;;;;;595.38;379.75;;;;;;;5.55;73.38;93761.19;1779741;80;21187;-49
2021/01/05 00:35:28;;;;;;;620.02;397.02;;;;;;;5.63;73.05;93767.95;1757728;80;21155;-48
2021/01/05 00:37:56;;;;;;;624.00;399.98;;;;;;;5.64;72.89;93772.95;1773242;80;21111;-50
2021/01/05 00:40:25;;;;;;;612.40;399.45;;;;;;;5.64;73.05;93772.95;1763281;80;21061;-49
2021/01/05 00:42:53;;;;;;;603.35;394.05;;;;;;;5.71;72.98;93763.78;1753237;80;22079;-50
2021/01/05 00:45:25;;;;;;;564.17;360.75;;;;;;;5.78;72.71;93761.61;1769654;80;21076;-50
2021/01/05 00:47:54;;;;;;;602.45;391.52;;;;;;;5.81;72.42;93760.73;1762535;80;21064;-49
2021/01/05 00:50:23;;;;;;;590.65;382.23;;;;;;;5.74;72.50;93757.44;1759570;80;21525;-50
2021/01/05 00:52:51;;;;;;;608.50;391.42;;;;;;;5.71;72.31;93758.33;1765511;80;21064;-50
2021/01/05 00:55:19;;;;;;;568.05;369.68;;;;;;;5.67;72.43;93763.92;1774032;80;21379;-49
2021/01/05 00:57:48;;;;;;;598.65;390.55;;;;;;;5.67;72.39;93757.69;1777099;80;21119;-49
2021/01/05 01:00:23;;;;;;;582.38;371.10;;;;;;;5.55;72.56;93754.36;1755243;80;21127;-50
2021/01/05 01:02:57;;;;;;;579.35;368.77;;;;;;;5.45;72.78;93748.67;1752678;80;21489;-49
2021/01/05 01:05:24;;;;;;;590.95;373.43;;;;;;;5.28;73.02;93745.91;1755911;80;21072;-50
2021/01/05 01:07:52;;;;;;;598.62;383.95;;;;;;;5.14;73.52;93749.06;1758020;80;21503;-49
2021/01/05 01:10:21;;;;;;;611.50;387.10;;;;;;;5.11;73.87;93747.21;1766188;80;21468;-49
2021/01/05 01:12:49;;;;;;;615.00;389.82;;;;;;;5.10;74.06;93741.59;1765037;80;21048;-49
2021/01/05 01:15:17;;;;;;;612.05;390.45;;;;;;;5.15;74.30;93741.66;1757992;80;21111;-50
2021/01/05 01:17:46;;;;;;;611.47;392.92;;;;;;;5.20;74.17;93741.11;1757482;80;21191;-49
2021/01/05 01:20:15;;;;;;;589.78;386.85;;;;;;;5.25;74.20;93735.26;1769961;80;21349;-49
2021/01/05 01:22:45;;;;;;;607.98;393.85;;;;;;;5.31;74.21;93731.39;1767410;80;21222;-50
2021/01/05 01:25:13;;;;;;;623.15;400.00;;;;;;;5.31;74.24;93725.34;1748387;80;21136;-50
2021/01/05 01:27:42;;;;;;;623.30;402.13;;;;;;;5.30;74.31;93720.32;1747478;80;21088;-51
2021/01/05 01:30:12;;;;;;;593.63;384.13;;;;;;;5.33;74.33;93725.67;1747409;80;21135;-51
2021/01/05 01:32:42;;;;;;;579.87;370.80;;;;;;;5.33;74.04;93726.25;1772386;80;22130;-50
2021/01/05 01:35:12;;;;;;;583.30;367.15;;;;;;;5.30;74.35;93725.77;1779725;80;21087;-51
2021/01/05 01:37:42;;;;;;;589.30;376.23;;;;;;;5.33;74.26;93723.53;1773660;80;21548;-50
2021/01/05 01:40:13;;;;;;;616.48;392.92;;;;;;;5.38;74.06;93722.38;1754921;80;21079;-49
2021/01/05 01:42:41;;;;;;;613.83;395.63;;;;;;;5.33;74.03;93720.80;1757885;80;21575;-50
2021/01/05 01:45:15;;;;;;;591.42;383.00;;;;;;;5.29;74.20;93713.34;1755447;80;21207;-49
2021/01/05 01:47:43;;;;;;;581.92;378.32;;;;;;;5.31;74.48;93711.72;1756368;80;21455;-49
2021/01/05 01:50:19;;;;;;;594.05;384.48;;;;;;;5.33;74.60;93709.31;1773671;80;21195;-49
2021/01/05 01:53:23;;;;;;;575.25;371.85;;;;;;;5.35;74.62;93707.49;1769353;80;21198;-49
2021/01/05 01:56:32;;;;;;;566.88;364.23;;;;;;;5.40;74.58;93695.44;1769081;80;21223;-48
2021/01/05 01:59:24;;;;;;;524.08;343.55;;;;;;;5.45;74.54;93688.67;1776960;79;22708;-49
2021/01/05 02:01:59;;;;;;;521.00;336.40;;;;;;;5.33;74.41;93692.95;1749659;82;21080;-49
2021/01/05 02:05:08;;;;;;;549.38;352.68;;;;;;;5.24;74.62;93694.82;1749276;82;22389;-48
2021/01/05 02:07:58;;;;;;;538.72;350.13;;;;;;;5.17;74.95;93699.12;1749101;82;21243;-50
2021/01/05 02:11:03;;;;;;;545.52;345.23;;;;;;;5.22;75.16;93695.86;1749334;82;21162;-49
2021/01/05 02:13:41;;;;;;;538.55;343.82;;;;;;;5.23;75.09;93688.43;1699075;84;21130;-48
2021/01/05 02:16:27;;;;;;;471.03;300.45;;;;;;;5.28;75.10;93679.85;1912184;75;22124;-49
2021/01/05 02:19:07;;;;;;;534.77;342.52;;;;;;;5.29;74.96;93696.98;1881812;76;21453;-49
2021/01/05 02:21:40;;;;;;;537.83;356.00;;;;;;;5.23;75.18;93686.48;1876098;76;21203;-48
2021/01/05 02:24:20;;;;;;;634.00;419.23;;;;;;;5.26;75.21;93678.16;1881806;75;28527;-49
2021/01/05 02:27:09;;;;;;;593.50;371.07;;;;;;;5.30;75.29;93671.24;1881926;75;21582;-49
2021/01/05 02:29:49;;;;;;;557.80;357.55;;;;;;;5.37;75.07;93664.19;1881698;76;21155;-50
2021/01/05 02:32:45;;;;;;;616.62;395.82;;;;;;;5.26;74.84;93661.06;1881471;76;21171;-49
2021/01/05 02:35:48;;;;;;;572.60;364.90;;;;;;;5.10;75.01;93670.73;1880748;76;21347;-49
2021/01/05 02:39:10;;;;;;;590.25;366.25;;;;;;;5.00;75.54;93666.37;1881561;76;21048;-49
2021/01/05 02:42:00;;;;;;;609.37;389.40;;;;;;;4.98;75.86;93651.06;1873647;76;22640;-49
2021/01/05 02:45:08;;;;;;;605.17;385.40;;;;;;;4.94;76.18;93653.14;1818044;78;21152;-50
2021/01/05 02:48:08;;;;;;;605.48;379.45;;;;;;;5.05;76.36;93639.17;1841591;77;21348;-49
2021/01/05 02:51:32;;;;;;;584.87;368.90;;;;;;;5.08;75.80;93636.34;1841584;77;21057;-50
2021/01/05 02:54:55;;;;;;;583.98;365.43;;;;;;;5.04;75.85;93638.42;1827559;78;21129;-50
2021/01/05 02:58:19;;;;;;;564.13;356.27;;;;;;;5.09;76.25;93630.28;1841783;78;21062;-49
2021/01/05 03:01:46;;;;;;;584.58;368.42;;;;;;;5.16;75.87;93626.72;1825826;78;21077;-50
2021/01/05 03:04:31;;;;;;;580.58;362.38;;;;;;;5.12;75.91;93626.08;1841695;78;22263;-49
2021/01/05 03:07:21;;;;;;;545.10;336.80;;;;;;;5.09;75.92;93613.92;1841522;77;21137;-50
2021/01/05 03:10:25;;;;;;;566.55;359.20;;;;;;;5.12;75.92;93605.64;1808442;78;21117;-50
2021/01/05 03:13:37;;;;;;;606.52;382.70;;;;;;;5.07;75.91;93610.88;1841605;77;21081;-49
2021/01/05 03:16:32;;;;;;;602.55;387.15;;;;;;;5.05;76.26;93611.33;1810050;77;21549;-49
2021/01/05 03:19:45;;;;;;;541.30;343.00;;;;;;;5.02;75.98;93611.44;1808551;79;21377;-50
2021/01/05 03:22:21;;;;;;;507.57;311.60;;;;;;;4.90;76.42;93607.54;1766840;79;21549;-50
2021/01/05 03:25:09;;;;;;;561.40;349.05;;;;;;;4.84;76.47;93609.30;1808538;78;21164;-49
2021/01/05 03:27:57;;;;;;;551.15;353.88;;;;;;;4.79;76.61;93613.92;1808520;79;21041;-49
2021/01/05 03:30:54;;;;;;;555.95;354.13;;;;;;;4.74;76.99;93601.44;1808499;78;21085;-49
2021/01/05 03:33:40;;;;;;;467.87;276.32;;;;;;;4.81;77.20;93591.08;1784079;79;21378;-49
2021/01/05 03:36:28;;;;;;;504.30;312.60;;;;;;;4.89;77.00;93597.06;1808441;79;21169;-50
2021/01/05 03:39:15;;;;;;;510.78;319.40;;;;;;;4.76;77.00;93588.91;1808495;78;21073;-49
2021/01/05 03:42:01;;;;;;;518.52;323.40;;;;;;;4.72;77.32;93582.83;1808417;79;21117;-50
2021/01/05 03:44:48;;;;;;;535.87;332.20;;;;;;;4.80;77.50;93583.36;1808526;79;21133;-48
2021/01/05 03:47:34;;;;;;;507.17;313.62;;;;;;;4.92;77.36;93580.61;1808567;78;22386;-49
2021/01/05 03:50:27;;;;;;;449.82;279.35;;;;;;;5.09;77.00;93590.17;1873608;76;21975;-48
2021/01/05 03:53:13;;;;;;;477.30;299.73;;;;;;;5.03;76.88;93585.13;1841627;78;21129;-49
2021/01/05 03:55:59;;;;;;;489.80;307.90;;;;;;;4.94;76.74;93585.02;1841616;78;21255;-49
2021/01/05 03:58:46;;;;;;;474.80;294.75;;;;;;;4.93;77.05;93590.31;1794325;78;21062;-49
2021/01/05 04:01:33;;;;;;;477.00;301.98;;;;;;;4.96;76.98;93586.70;1841590;78;21121;-50
2021/01/05 04:04:01;;;;;;;466.68;287.50;;;;;;;5.00;76.84;93598.24;1841509;77;21117;-53
2021/01/05 04:06:29;;;;;;;479.75;302.18;;;;;;;4.99;77.05;93587.19;1841722;78;21465;-54
2021/01/05 04:08:57;;;;;;;462.18;287.70;;;;;;;4.99;76.88;93587.19;1841510;77;21412;-53
2021/01/05 04:11:25;;;;;;;477.78;301.20;;;;;;;4.97;76.97;93586.86;1841525;77;20950;-55
2021/01/05 04:13:53;;;;;;;422.93;253.80;;;;;;;4.96;77.04;93570.97;1841573;78;20959;-54
2021/01/05 04:16:21;;;;;;;496.00;310.10;;;;;;;4.96;76.97;93574.44;1810699;78;21132;-54
2021/01/05 04:18:48;;;;;;;455.25;287.70;;;;;;;4.94;77.03;93563.84;1808522;78;21049;-54
2021/01/05 04:21:16;;;;;;;450.25;280.65;;;;;;;4.98;76.99;93576.73;1808514;79;21471;-52
2021/01/05 04:23:44;;;;;;;467.33;293.45;;;;;;;4.95;77.20;93581.09;1808430;79;21829;-50
2021/01/05 04:26:12;;;;;;;409.22;243.33;;;;;;;4.99;77.42;93581.73;1808493;79;21113;-51
2021/01/05 04:28:40;;;;;;;490.85;311.60;;;;;;;5.04;77.13;93577.11;1808542;78;21565;-51
2021/01/05 04:31:08;;;;;;;482.85;309.05;;;;;;;4.95;77.32;93571.55;1808510;79;21065;-51
2021/01/05 04:33:36;;;;;;;453.68;285.55;;;;;;;4.96;77.43;93574.44;1808490;79;21256;-52
2021/01/05 04:36:05;;;;;;;424.48;258.38;;;;;;;4.95;77.37;93577.01;1808443;78;21136;-54
2021/01/05 04:38:33;;;;;;;440.92;278.60;;;;;;;4.97;77.45;93569.15;1808522;79;21121;-53
2021/01/05 04:41:01;;;;;;;440.40;283.43;;;;;;;4.97;77.54;93571.13;1808481;78;21096;-54
2021/01/05 04:43:46;;;;;;;411.28;255.50;;;;;;;4.99;77.45;93576.90;1808541;79;21073;-52
2021/01/05 04:46:21;;;;;;;417.90;251.70;;;;;;;4.92;77.66;93576.53;1808537;79;21187;-53
2021/01/05 04:49:00;;;;;;;420.68;260.30;;;;;;;4.92;77.89;93583.92;1808091;78;21621;-52
2021/01/05 04:51:39;;;;;;;422.13;265.52;;;;;;;4.99;77.79;93580.37;1808511;78;21049;-50
2021/01/05 04:54:30;;;;;;;445.92;274.15;;;;;;;5.02;77.77;93578.16;1808467;79;21057;-50
2021/01/05 04:57:12;;;;;;;341.08;195.87;;;;;;;5.08;77.99;93576.97;1808523;79;21053;-51
2021/01/05 04:59:59;;;;;;;333.93;203.92;;;;;;;5.13;78.00;93566.28;1808444;79;21502;-50
2021/01/05 05:02:35;;;;;;;331.23;194.20;;;;;;;5.09;78.40;93575.77;1807832;78;21054;-54
2021/01/05 05:05:26;;;;;;;297.50;176.78;;;;;;;5.10;78.51;93573.97;1807203;78;21089;-48
2021/01/05 05:08:17;;;;;;;302.55;177.40;;;;;;;5.12;78.63;93563.39;1797997;79;21065;-49
2021/01/05 05:10:52;;;;;;;268.23;155.05;;;;;;;5.15;78.63;93575.39;1807921;78;21061;-50
2021/01/05 05:13:48;;;;;;;254.68;149.72;;;;;;;5.17;79.05;93575.09;1779452;79;21125;-48
2021/01/05 05:16:25;;;;;;;301.23;178.18;;;;;;;5.20;78.88;93582.41;1807812;78;21088;-50
2021/01/05 05:19:22;;;;;;;257.55;152.85;;;;;;;5.22;79.17;93581.95;1807397;79;21144;-50
2021/01/05 05:22:08;;;;;;;284.57;166.60;;;;;;;5.29;78.98;93577.80;1807888;79;21140;-49
2021/01/05 05:24:55;;;;;;;243.17;145.80;;;;;;;5.31;79.22;93577.34;1807967;79;21066;-51
2021/01/05 05:27:35;;;;;;;236.07;138.32;;;;;;;5.41;79.13;93571.52;1779091;79;21541;-50
2021/01/05 05:30:09;;;;;;;217.28;129.55;;;;;;;5.40;79.37;93575.45;1807828;79;21517;-50
2021/01/05 05:32:49;;;;;;;220.78;134.63;;;;;;;5.47;79.66;93575.22;1779607;79;21057;-50
2021/01/05 05:35:58;;;;;;;208.17;125.67;;;;;;;5.59;79.44;93571.66;1807888;79;21094;-50
2021/01/05 05:38:56;;;;;;;184.82;108.55;;;;;;;5.65;79.23;93568.55;1807884;79;21066;-51
2021/01/05 05:42:04;;;;;;;159.90;100.72;;;;;;;5.66;79.37;93574.74;1807976;79;22096;-51
2021/01/05 05:44:57;;;;;;;152.22;95.17;;;;;;;5.72;79.50;93572.38;1736608;81;21184;-50
2021/01/05 05:47:45;;;;;;;160.90;98.35;;;;;;;5.69;79.57;93573.84;1802786;78;21082;-51
2021/01/05 05:50:43;;;;;;;157.07;96.42;;;;;;;5.70;79.69;93574.01;1807412;78;21168;-49
2021/01/05 05:53:15;;;;;;;181.97;114.80;;;;;;;5.72;79.60;93575.09;1807891;78;21125;-49
2021/01/05 05:55:57;;;;;;;188.68;119.55;;;;;;;5.68;79.74;93566.28;1779164;79;21509;-50
2021/01/05 05:58:30;;;;;;;177.43;113.25;;;;;;;5.76;79.85;93570.27;1805832;78;21088;-50
2021/01/05 06:01:01;;;;;;;154.47;97.10;;;;;;;5.81;79.58;93575.17;1807912;78;21601;-50
2021/01/05 06:03:28;;;;;;;153.93;89.90;;;;;;;5.73;79.77;93582.66;1807981;78;21470;-50
2021/01/05 06:05:56;;;;;;;185.52;112.12;;;;;;;5.65;80.12;93577.31;1807865;79;21061;-51
2021/01/05 06:08:24;;;;;;;186.60;116.45;;;;;;;5.67;80.37;93583.09;1778673;79;21252;-51
2021/01/05 06:10:52;;;;;;;179.55;111.00;;;;;;;5.67;80.50;93584.45;1807737;78;21105;-49
2021/01/05 06:13:20;;;;;;;173.53;105.15;;;;;;;5.71;80.72;93574.16;1807735;78;21592;-50
2021/01/05 06:15:49;;;;;;;159.63;96.82;;;;;;;5.75;80.76;93577.55;1807849;78;21092;-49
2021/01/05 06:18:18;;;;;;;168.93;107.40;;;;;;;5.80;80.81;93583.83;1807742;78;21062;-51
2021/01/05 06:20:46;;;;;;;150.07;94.00;;;;;;;5.80;80.68;93572.91;1807896;79;21198;-50
2021/01/05 06:23:14;;;;;;;151.65;94.75;;;;;;;5.76;80.59;93577.70;1807806;79;21136;-51
2021/01/05 06:25:42;;;;;;;138.03;83.97;;;;;;;5.72;81.06;93581.14;1807840;79;21141;-49
2021/01/05 06:28:10;;;;;;;169.75;104.78;;;;;;;5.81;81.36;93582.61;1807790;79;21049;-50
2021/01/05 06:30:38;;;;;;;174.72;108.63;;;;;;;5.91;81.05;93584.19;1807887;78;21066;-51
2021/01/05 06:33:06;;;;;;;134.93;84.50;;;;;;;5.90;80.64;93579.34;1807801;79;21194;-50
2021/01/05 06:35:34;;;;;;;162.27;97.95;;;;;;;5.86;80.65;93582.03;1807712;78;21214;-49
2021/01/05 06:38:02;;;;;;;165.07;98.30;;;;;;;5.83;80.80;93585.66;1807767;79;21140;-50
2021/01/05 06:40:29;;;;;;;155.70;95.42;;;;;;;5.82;80.78;93581.41;1807778;78;21184;-51
2021/01/05 06:42:57;;;;;;;137.60;87.90;;;;;;;5.77;81.10;93578.61;1769889;79;21588;-51
2021/01/05 06:45:30;;;;;;;109.48;67.17;;;;;;;5.75;81.26;93586.48;1758489;80;21193;-51
2021/01/05 06:47:58;;;;;;;117.45;72.25;;;;;;;5.74;81.59;93592.38;1705213;84;21117;-50
2021/01/05 06:50:29;;;;;;;131.25;75.95;;;;;;;5.71;81.71;93587.81;1773943;79;21121;-55
2021/01/05 06:52:57;;;;;;;154.90;99.95;;;;;;;5.68;82.08;93583.24;1748226;80;21495;-51
2021/01/05 06:55:25;;;;;;;165.40;102.92;;;;;;;5.70;82.18;93579.47;1758516;80;21111;-53
2021/01/05 06:57:53;;;;;;;163.10;100.27;;;;;;;5.75;82.22;93584.37;1743636;80;21884;-53
2021/01/05 07:00:27;;;;;;;157.60;97.57;;;;;;;5.77;82.22;93584.69;1749559;80;21138;-56
2021/01/05 07:02:55;;;;;;;181.12;111.68;;;;;;;5.82;82.32;93580.05;1746047;80;21122;-53
2021/01/05 07:05:23;;;;;;;181.80;111.72;;;;;;;5.87;82.27;93584.92;1755035;81;21203;-55
2021/01/05 07:07:51;;;;;;;181.57;114.57;;;;;;;5.95;82.27;93583.47;1745090;80;21189;-56
2021/01/05 07:10:21;;;;;;;190.45;115.22;;;;;;;6.02;82.10;93583.98;1744886;80;21749;-54
2021/01/05 07:12:51;;;;;;;214.30;133.27;;;;;;;6.06;81.83;93591.42;1741551;80;21189;-55
2021/01/05 07:15:19;;;;;;;204.15;131.75;;;;;;;6.08;81.76;93582.77;1744446;80;21510;-53
2021/01/05 07:17:47;;;;;;;231.50;137.77;;;;;;;6.12;81.67;93592.98;1742185;81;21193;-53
2021/01/05 07:20:16;;;;;;;183.85;117.33;;;;;;;6.15;81.43;93586.62;1742906;80;21154;-56
2021/01/05 07:22:45;;;;;;;177.68;110.70;;;;;;;6.17;81.09;93586.94;1742320;80;21189;-50
2021/01/05 07:25:14;;;;;;;157.88;100.00;;;;;;;6.15;81.36;93585.26;1738473;82;21177;-54
2021/01/05 07:27:43;;;;;;;139.18;90.90;;;;;;;6.20;81.23;93576.48;1722782;82;21142;-52
2021/01/05 07:30:12;;;;;;;159.40;104.10;;;;;;;6.21;81.23;93582.87;1737756;81;21202;-54
2021/01/05 07:32:40;;;;;;;133.63;86.67;;;;;;;6.25;81.12;93579.98;1745641;80;21621;-53
2021/01/05 07:35:11;;;;;;;113.88;72.82;;;;;;;6.30;81.20;93588.98;1741947;81;21177;-53
2021/01/05 07:37:42;;;;;;;141.97;94.22;;;;;;;6.38;81.26;93588.86;1734999;81;21193;-54
2021/01/05 07:40:11;;;;;;;131.75;85.57;;;;;;;6.47;81.09;93580.70;1743157;81;21476;-52
2021/01/05 07:42:40;;;;;;;107.03;70.28;;;;;;;6.51;80.88;93583.45;1715598;82;21178;-54
2021/01/05 07:45:14;;;;;;;137.45;90.07;;;;;;;6.51;80.91;93593.63;1740681;81;21143;-57
2021/01/05 07:47:44;;;;;;;178.18;113.25;;;;;;;6.52;80.89;93600.00;1748172;81;21610;-55
2021/01/05 07:50:20;;;;;;;183.35;106.80;;;;;;;6.49;80.75;93601.52;1740466;81;21239;-52
2021/01/05 07:52:48;;;;;;;176.68;103.95;;;;;;;6.52;80.74;93587.70;1746619;81;21199;-52
2021/01/05 07:55:21;;;;;;;152.45;91.78;;;;;;;6.55;80.63;93583.33;1741050;82;21522;-54
2021/01/05 07:57:52;;;;;;;102.72;62.98;;;;;;;6.52;80.81;93579.51;1756737;79;21142;-55
2021/01/05 08:00:25;;;;;;;77.95;49.40;;;;;;;6.53;80.91;93585.13;1731098;81;21198;-54
2021/01/05 08:02:53;;;;;;;56.50;33.85;;;;;;;6.57;80.86;93572.70;1763848;80;21176;-53
2021/01/05 08:05:27;;;;;;;119.02;71.33;;;;;;;6.65;80.93;93580.77;1730643;82;21160;-57
2021/01/05 08:07:57;;;;;;;204.30;126.78;;;;;;;6.76;80.92;93587.36;1743126;80;21177;-55
2021/01/05 08:10:37;;;;;;;169.80;107.63;;;;;;;6.86;80.58;93581.32;1746931;81;21208;-54
2021/01/05 08:13:11;;;;;;;144.90;94.50;;;;;;;6.88;80.20;93582.99;1748513;80;21430;-51
2021/01/05 08:15:41;;;;;;;139.62;86.30;;;;;;;6.87;79.98;93583.59;1744015;80;21214;-55
2021/01/05 08:18:12;;;;;;;106.43;66.07;;;;;;;6.88;80.06;93581.63;1746633;80;21177;-56
2021/01/05 08:20:41;;;;;;;97.75;62.00;;;;;;;6.91;79.89;93579.35;1726880;81;21644;-54
2021/01/05 08:23:09;;;;;;;89.52;61.02;;;;;;;6.92;79.93;93583.61;1751782;80;21125;-53
2021/01/05 08:25:42;;;;;;;139.37;93.37;;;;;;;6.90;80.02;93582.67;1749496;80;21396;-53
2021/01/05 08:28:11;;;;;;;389.50;240.70;;;;;;;6.93;80.30;93585.13;1749808;80;21240;-53
2021/01/05 08:30:41;;;;;;;159.12;103.12;;;;;;;6.98;80.27;93585.89;1730627;81;21680;-54
2021/01/05 08:33:18;;;;;;;96.32;62.65;;;;;;;7.00;80.25;93586.97;1729179;82;21657;-56
2021/01/05 08:35:47;;;;;;;83.42;54.45;;;;;;;7.00;80.22;93589.70;1722096;82;21134;-52
2021/01/05 08:38:15;;;;;;;133.82;82.15;;;;;;;7.07;80.32;93585.92;1748698;80;21702;-54
2021/01/05 08:40:43;;;;;;;86.82;56.15;;;;;;;7.11;80.09;93582.59;1722234;81;21920;-54
2021/01/05 08:43:12;;;;;;;72.30;47.88;;;;;;;7.09;79.99;93583.65;1746827;80;21198;-57
2021/01/05 08:45:41;;;;;;;93.07;55.83;;;;;;;7.04;79.97;93589.57;1750328;80;21605;-56
2021/01/05 08:48:10;;;;;;;73.25;47.90;;;;;;;7.00;80.32;93591.07;1745309;80;21210;-52
2021/01/05 08:50:38;;;;;;;61.75;42.33;;;;;;;7.05;80.38;93589.10;1734017;80;21734;-56
2021/01/05 08:53:09;;;;;;;54.70;37.53;;;;;;;7.10;80.27;93592.00;1728746;82;21101;-51
2021/01/05 08:55:40;;;;;;;50.52;35.40;;;;;;;7.13;80.35;93585.63;1746713;80;21632;-59
2021/01/05 08:58:17;;;;;;;48.08;31.52;;;;;;;7.24;80.21;93580.48;1874897;74;22757;-54
2021/01/05 09:00:46;;;;;;;44.38;30.70;;;;;;;7.18;79.93;93576.07;1846074;77;21148;-56
2021/01/05 09:03:14;;;;;;;49.03;32.28;;;;;;;7.18;79.91;93577.44;1861678;76;22046;-58
2021/01/05 09:05:45;;;;;;;82.65;49.48;;;;;;;7.22;80.00;93578.82;1826390;77;21147;-54
2021/01/05 09:08:14;;;;;;;65.55;43.87;;;;;;;7.31;79.67;93574.72;1835036;77;21621;-51
2021/01/05 09:10:42;;;;;;;52.98;33.60;;;;;;;7.35;79.46;93568.48;1825729;78;21138;-53
2021/01/05 09:13:10;;;;;;;92.75;54.80;;;;;;;7.39;79.31;93573.22;1852425;77;21104;-54
2021/01/05 09:15:39;;;;;;;59.75;40.12;;;;;;;7.40;79.25;93580.21;1824412;77;21253;-55
2021/01/05 09:18:09;;;;;;;56.53;38.90;;;;;;;7.43;79.01;93582.63;1810654;78;21332;-55
2021/01/05 09:20:37;;;;;;;55.67;38.38;;;;;;;7.39;79.07;93582.80;1818337;78;21046;-53
2021/01/05 09:23:04;;;;;;;62.43;41.60;;;;;;;7.41;79.26;93577.63;1824713;78;21149;-53
2021/01/05 09:25:33;;;;;;;47.90;32.80;;;;;;;7.44;79.29;93579.45;1823328;77;21482;-51
2021/01/05 09:28:00;;;;;;;50.45;33.40;;;;;;;7.50;79.17;93587.20;1817743;78;22718;-53
2021/01/05 09:30:28;;;;;;;41.08;26.97;;;;;;;7.52;78.92;93580.66;1816614;78;21238;-54
2021/01/05 09:32:58;;;;;;;33.53;23.22;;;;;;;7.54;78.84;93573.38;1819076;78;21119;-53
2021/01/05 09:35:27;;;;;;;34.35;20.68;;;;;;;7.54;78.53;93575.48;1822260;77;21169;-54
2021/01/05 09:37:54;;;;;;;24.15;16.55;;;;;;;7.51;77.99;93578.39;1808716;77;21178;-51
2021/01/05 09:40:24;;;;;;;18.85;14.50;;;;;;;7.53;77.66;93575.33;1819132;77;21517;-52
2021/01/05 09:42:52;;;;;;;17.02;13.25;;;;;;;7.53;77.35;93582.17;1790331;79;21170;-55
2021/01/05 09:45:21;;;;;;;12.10;10.55;;;;;;;7.56;76.84;93588.10;1820254;78;21110;-53
2021/01/05 09:47:49;;;;;;;10.65;9.08;;;;;;;7.55;76.38;93583.84;1821940;77;21127;-55
2021/01/05 09:50:18;;;;;;;12.90;10.13;;;;;;;7.56;76.04;93587.36;1821376;77;21055;-54
2021/01/05 09:52:46;;;;;;;13.50;10.15;;;;;;;7.54;75.82;93586.43;1810311;77;21230;-53
2021/01/05 09:55:15;;;;;;;18.12;12.30;;;;;;;7.52;75.92;93585.38;1825610;77;21172;-56
2021/01/05 09:57:43;;;;;;;28.25;18.60;;;;;;;7.54;75.93;93573.38;1823266;77;21164;-50
2021/01/05 10:00:14;;;;;;;12.82;11.10;;;;;;;7.61;76.17;93571.09;1830784;77;21650;-52
2021/01/05 10:02:42;;;;;;;15.88;11.43;;;;;;;7.70;75.42;93569.70;1820653;77;21163;-53
2021/01/05 10:05:14;;;;;;;14.45;10.03;;;;;;;7.88;75.35;93568.33;1829578;77;21363;-56
2021/01/05 10:07:43;;;;;;;11.33;8.65;;;;;;;8.06;75.14;93551.88;1776034;77;21215;-52
2021/01/05 10:10:20;;;;;;;10.60;8.28;;;;;;;8.28;74.77;93544.23;1825218;77;21155;-54
2021/01/05 10:12:48;;;;;;;10.60;8.18;;;;;;;8.47;74.17;93540.84;1818769;77;21170;-54
2021/01/05 10:15:18;;;;;;;12.00;8.35;;;;;;;8.62;73.62;93545.81;1794267;79;21230;-53
2021/01/05 10:17:46;;;;;;;9.45;7.60;;;;;;;8.77;73.02;93551.52;1771371;80;21192;-52
2021/01/05 10:20:16;;;;;;;9.40;7.60;;;;;;;8.87;72.35;93553.00;1772285;79;21442;-51
2021/01/05 10:22:45;;;;;;;9.23;8.10;;;;;;;8.90;71.97;93552.07;1768022;81;21217;-50
2021/01/05 10:25:15;;;;;;;8.88;7.67;;;;;;;8.86;71.81;93546.01;1768507;79;21042;-51
2021/01/05 10:27:43;;;;;;;8.53;6.67;;;;;;;8.84;71.79;93545.69;1769632;80;21149;-53
2021/01/05 10:30:15;;;;;;;7.58;6.42;;;;;;;8.82;71.56;93551.50;1761394;81;22691;-57
2021/01/05 10:32:44;;;;;;;8.70;6.08;;;;;;;8.75;71.28;93548.48;1760243;79;21235;-51
2021/01/05 10:35:15;;;;;;;6.47;5.83;;;;;;;8.63;71.18;93545.33;1756636;80;21384;-51
2021/01/05 10:37:46;;;;;;;6.10;5.20;;;;;;;8.55;71.34;93542.78;1737597;81;21062;-50
2021/01/05 10:40:15;;;;;;;10.93;8.88;;;;;;;8.53;71.44;93544.45;1769290;80;21364;-53
2021/01/05 10:42:48;;;;;;;10.35;9.33;;;;;;;8.48;71.38;93547.23;1769619;80;21526;-50
2021/01/05 10:45:22;;;;;;;11.22;10.10;;;;;;;8.41;71.35;93547.55;1773968;80;21178;-56
2021/01/05 10:47:52;;;;;;;11.70;8.15;;;;;;;8.30;71.34;93550.63;1785383;79;21163;-52
2021/01/05 10:50:24;;;;;;;10.48;8.58;;;;;;;8.23;71.68;93548.23;1776222;80;21154;-52
2021/01/05 10:52:52;;;;;;;12.33;9.23;;;;;;;8.21;72.08;93549.30;1768568;79;21613;-52
2021/01/05 10:55:21;;;;;;;6.47;5.70;;;;;;;8.19;71.88;93549.75;1771116;79;21306;-51
2021/01/05 10:57:50;;;;;;;9.38;7.53;;;;;;;8.13;71.68;93557.05;1767713;80;21164;-51
2021/01/05 11:00:21;;;;;;;7.75;6.95;;;;;;;8.02;71.75;93548.54;1760801;81;21172;-53
2021/01/05 11:02:48;;;;;;;5.80;5.30;;;;;;;7.92;71.60;93553.13;1770645;80;21641;-54
2021/01/05 11:05:18;;;;;;;5.72;5.10;;;;;;;7.78;71.92;93544.94;1768117;81;21162;-51
2021/01/05 11:07:51;;;;;;;6.25;5.65;;;;;;;7.73;72.19;93542.79;1767893;81;21244;-55
2021/01/05 11:10:20;;;;;;;6.45;5.60;;;;;;;7.72;72.36;93535.80;1754928;81;21642;-51
2021/01/05 11:12:48;;;;;;;6.12;5.62;;;;;;;7.71;72.42;93541.12;1768101;81;21086;-50
2021/01/05 11:15:18;;;;;;;7.33;6.65;;;;;;;7.68;72.60;93531.72;1768023;81;21165;-50
2021/01/05 11:17:46;;;;;;;12.80;10.95;;;;;;;7.66;72.65;93536.27;1768053;81;21167;-50
2021/01/05 11:20:15;;;;;;;9.78;8.70;;;;;;;7.67;72.84;93530.20;1768141;80;21367;-50
2021/01/05 11:22:44;;;;;;;9.08;8.15;;;;;;;7.70;72.89;93532.76;1767695;81;21331;-57
2021/01/05 11:25:16;;;;;;;12.33;10.03;;;;;;;7.79;72.82;93523.78;1740554;80;21189;-51
2021/01/05 11:27:44;;;;;;;11.00;9.90;;;;;;;7.85;72.68;93519.97;1737640;81;21584;-54
2021/01/05 11:30:19;;;;;;;9.15;8.30;;;;;;;7.89;72.68;93518.45;1737534;82;21250;-49
2021/01/05 11:32:46;;;;;;;9.43;8.40;;;;;;;7.95;72.79;93517.38;1725004;82;21200;-50
2021/01/05 11:35:17;;;;;;;10.03;8.95;;;;;;;8.01;72.65;93515.53;1740869;80;21184;-54
2021/01/05 11:37:45;;;;;;;9.45;8.55;;;;;;;8.05;72.52;93525.70;1764529;80;21488;-56
2021/01/05 11:40:15;;;;;;;10.50;9.10;;;;;;;8.06;72.49;93523.11;1737390;80;21498;-54
2021/01/05 11:42:43;;;;;;;15.00;11.08;;;;;;;8.08;72.54;93524.78;1753825;80;21194;-53
2021/01/05 11:45:13;;;;;;;13.95;11.53;;;;;;;8.14;72.35;93521.59;1776814;79;21602;-52
2021/01/05 11:47:41;;;;;;;27.00;18.85;;;;;;;8.12;72.19;93525.41;1762392;79;21184;-51
2021/01/05 11:50:12;;;;;;;32.95;21.93;;;;;;;8.09;72.35;93531.78;1742132;82;21131;-55
2021/01/05 11:52:40;;;;;;;38.08;24.70;;;;;;;8.07;72.53;93537.59;1746645;80;21190;-53